sensor_id;sensor_type;location;lat;lon;timestamp;temperature;humidity
39021;DHT22;25188;51.958;5.842;2022-09-13T00:00:57;20.10;87.40
39021;DHT22;25188;51.958;5.842;2022-09-13T00:03:24;20.20;87.60
39021;DHT22;25188;51.958;5.842;2022-09-13T00:05:50;20.20;87.60
39021;DHT22;25188;51.958;5.842;2022-09-13T00:08:17;20.20;87.70
39021;DHT22;25188;51.958;5.842;2022-09-13T00:10:43;20.20;88.40
39021;DHT22;25188;51.958;5.842;2022-09-13T00:13:11;20.20;87.70
39021;DHT22;25188;51.958;5.842;2022-09-13T00:15:42;20.10;87.70
39021;DHT22;25188;51.958;5.842;2022-09-13T00:18:08;20.20;87.90
39021;DHT22;25188;51.958;5.842;2022-09-13T00:20:33;20.10;87.80
39021;DHT22;25188;51.958;5.842;2022-09-13T00:22:59;20.10;87.80
39021;DHT22;25188;51.958;5.842;2022-09-13T00:25:25;20.10;87.80
39021;DHT22;25188;51.958;5.842;2022-09-13T00:27:50;20.10;87.90
39021;DHT22;25188;51.958;5.842;2022-09-13T00:30:16;20.10;87.90
39021;DHT22;25188;51.958;5.842;2022-09-13T00:32:42;20.10;88.00
39021;DHT22;25188;51.958;5.842;2022-09-13T00:35:07;20.10;88.10
39021;DHT22;25188;51.958;5.842;2022-09-13T00:37:33;20.10;88.30
39021;DHT22;25188;51.958;5.842;2022-09-13T00:40:00;20.10;88.50
39021;DHT22;25188;51.958;5.842;2022-09-13T00:42:27;20.10;88.60
39021;DHT22;25188;51.958;5.842;2022-09-13T00:47:35;20.10;89.10
39021;DHT22;25188;51.958;5.842;2022-09-13T00:50:10;20.10;89.30
39021;DHT22;25188;51.958;5.842;2022-09-13T00:52:39;20.10;89.30
39021;DHT22;25188;51.958;5.842;2022-09-13T00:55:12;20.10;89.30
39021;DHT22;25188;51.958;5.842;2022-09-13T00:57:40;20.10;89.80
39021;DHT22;25188;51.958;5.842;2022-09-13T01:00:15;20.10;90.00
39021;DHT22;25188;51.958;5.842;2022-09-13T01:02:52;20.10;90.10
39021;DHT22;25188;51.958;5.842;2022-09-13T01:05:22;20.10;90.10
39021;DHT22;25188;51.958;5.842;2022-09-13T01:07:50;20.00;90.10
39021;DHT22;25188;51.958;5.842;2022-09-13T01:10:15;20.00;90.20
39021;DHT22;25188;51.958;5.842;2022-09-13T01:12:44;20.10;90.40
39021;DHT22;25188;51.958;5.842;2022-09-13T01:15:13;20.00;90.40
39021;DHT22;25188;51.958;5.842;2022-09-13T01:17:39;20.00;90.50
39021;DHT22;25188;51.958;5.842;2022-09-13T01:20:06;20.00;90.60
39021;DHT22;25188;51.958;5.842;2022-09-13T01:28:10;20.00;90.80
39021;DHT22;25188;51.958;5.842;2022-09-13T01:30:53;20.00;90.80
39021;DHT22;25188;51.958;5.842;2022-09-13T01:35:53;19.90;91.00
39021;DHT22;25188;51.958;5.842;2022-09-13T01:44:27;19.90;91.40
39021;DHT22;25188;51.958;5.842;2022-09-13T01:52:43;19.90;91.40
39021;DHT22;25188;51.958;5.842;2022-09-13T01:55:27;19.90;91.40
39021;DHT22;25188;51.958;5.842;2022-09-13T01:58:11;19.90;91.40
39021;DHT22;25188;51.958;5.842;2022-09-13T02:01:02;19.90;91.50
39021;DHT22;25188;51.958;5.842;2022-09-13T02:06:33;19.90;91.70
39021;DHT22;25188;51.958;5.842;2022-09-13T02:09:14;19.80;91.60
39021;DHT22;25188;51.958;5.842;2022-09-13T02:11:45;19.80;91.70
39021;DHT22;25188;51.958;5.842;2022-09-13T02:14:19;19.80;91.80
39021;DHT22;25188;51.958;5.842;2022-09-13T02:16:57;19.80;91.90
39021;DHT22;25188;51.958;5.842;2022-09-13T02:21:59;19.70;91.90
39021;DHT22;25188;51.958;5.842;2022-09-13T02:24:51;19.80;92.00
39021;DHT22;25188;51.958;5.842;2022-09-13T02:27:23;19.80;92.00
39021;DHT22;25188;51.958;5.842;2022-09-13T02:29:54;19.80;92.00
39021;DHT22;25188;51.958;5.842;2022-09-13T02:32:28;19.80;91.90
39021;DHT22;25188;51.958;5.842;2022-09-13T02:35:00;19.80;91.90
39021;DHT22;25188;51.958;5.842;2022-09-13T02:37:28;19.80;91.90
39021;DHT22;25188;51.958;5.842;2022-09-13T02:40:00;19.70;91.80
39021;DHT22;25188;51.958;5.842;2022-09-13T02:42:36;19.70;91.70
39021;DHT22;25188;51.958;5.842;2022-09-13T02:45:04;19.70;91.70
39021;DHT22;25188;51.958;5.842;2022-09-13T02:55:41;19.70;91.20
39021;DHT22;25188;51.958;5.842;2022-09-13T03:00:40;19.70;91.10
39021;DHT22;25188;51.958;5.842;2022-09-13T03:03:08;19.70;91.10
39021;DHT22;25188;51.958;5.842;2022-09-13T03:05:35;19.70;91.20
39021;DHT22;25188;51.958;5.842;2022-09-13T03:08:01;19.70;91.20
39021;DHT22;25188;51.958;5.842;2022-09-13T03:10:36;19.60;91.10
39021;DHT22;25188;51.958;5.842;2022-09-13T03:13:39;19.60;91.10
39021;DHT22;25188;51.958;5.842;2022-09-13T03:22:11;19.60;91.20
39021;DHT22;25188;51.958;5.842;2022-09-13T03:25:12;19.60;91.20
39021;DHT22;25188;51.958;5.842;2022-09-13T03:28:04;19.60;91.30
39021;DHT22;25188;51.958;5.842;2022-09-13T03:30:36;19.60;91.30
39021;DHT22;25188;51.958;5.842;2022-09-13T03:33:18;19.60;91.30
39021;DHT22;25188;51.958;5.842;2022-09-13T03:36:00;19.60;91.40
39021;DHT22;25188;51.958;5.842;2022-09-13T03:41:23;19.50;91.30
39021;DHT22;25188;51.958;5.842;2022-09-13T03:43:54;19.50;91.30
39021;DHT22;25188;51.958;5.842;2022-09-13T03:46:40;19.50;91.30
39021;DHT22;25188;51.958;5.842;2022-09-13T03:49:15;19.50;91.30
39021;DHT22;25188;51.958;5.842;2022-09-13T03:51:44;19.50;91.20
39021;DHT22;25188;51.958;5.842;2022-09-13T03:54:22;19.50;91.20
39021;DHT22;25188;51.958;5.842;2022-09-13T03:59:34;19.50;91.40
39021;DHT22;25188;51.958;5.842;2022-09-13T04:02:01;19.50;91.40
39021;DHT22;25188;51.958;5.842;2022-09-13T04:04:27;19.50;91.30
39021;DHT22;25188;51.958;5.842;2022-09-13T04:06:55;19.50;91.30
39021;DHT22;25188;51.958;5.842;2022-09-13T04:09:21;19.50;91.30
39021;DHT22;25188;51.958;5.842;2022-09-13T04:11:52;19.50;91.30
39021;DHT22;25188;51.958;5.842;2022-09-13T04:14:17;19.40;91.40
39021;DHT22;25188;51.958;5.842;2022-09-13T04:16:44;19.40;91.50
39021;DHT22;25188;51.958;5.842;2022-09-13T04:19:10;19.50;91.60
39021;DHT22;25188;51.958;5.842;2022-09-13T04:21:38;19.50;91.70
39021;DHT22;25188;51.958;5.842;2022-09-13T04:24:04;19.40;91.60
39021;DHT22;25188;51.958;5.842;2022-09-13T04:26:32;19.50;91.70
39021;DHT22;25188;51.958;5.842;2022-09-13T04:29:04;19.40;91.70
39021;DHT22;25188;51.958;5.842;2022-09-13T04:31:33;19.40;91.80
39021;DHT22;25188;51.958;5.842;2022-09-13T04:33:59;19.40;91.80
39021;DHT22;25188;51.958;5.842;2022-09-13T04:36:25;19.40;91.80
39021;DHT22;25188;51.958;5.842;2022-09-13T04:38:54;19.40;91.80
39021;DHT22;25188;51.958;5.842;2022-09-13T04:41:20;19.40;91.80
39021;DHT22;25188;51.958;5.842;2022-09-13T04:43:51;19.40;91.90
39021;DHT22;25188;51.958;5.842;2022-09-13T04:46:17;19.40;92.20
39021;DHT22;25188;51.958;5.842;2022-09-13T04:48:47;19.40;91.90
39021;DHT22;25188;51.958;5.842;2022-09-13T04:51:14;19.40;91.80
39021;DHT22;25188;51.958;5.842;2022-09-13T04:53:40;19.30;91.80
39021;DHT22;25188;51.958;5.842;2022-09-13T04:56:06;19.30;91.80
39021;DHT22;25188;51.958;5.842;2022-09-13T04:58:33;19.30;91.80
39021;DHT22;25188;51.958;5.842;2022-09-13T05:01:01;19.30;91.80
39021;DHT22;25188;51.958;5.842;2022-09-13T05:03:29;19.30;91.80
39021;DHT22;25188;51.958;5.842;2022-09-13T05:06:09;19.20;91.70
39021;DHT22;25188;51.958;5.842;2022-09-13T05:08:48;19.30;92.10
39021;DHT22;25188;51.958;5.842;2022-09-13T05:11:27;19.30;91.80
39021;DHT22;25188;51.958;5.842;2022-09-13T05:13:57;19.30;91.80
39021;DHT22;25188;51.958;5.842;2022-09-13T05:16:25;19.30;91.80
39021;DHT22;25188;51.958;5.842;2022-09-13T05:18:51;19.30;91.80
39021;DHT22;25188;51.958;5.842;2022-09-13T05:21:17;19.30;91.80
39021;DHT22;25188;51.958;5.842;2022-09-13T05:23:43;19.30;91.80
39021;DHT22;25188;51.958;5.842;2022-09-13T05:26:09;19.40;91.80
39021;DHT22;25188;51.958;5.842;2022-09-13T05:28:36;19.30;91.70
39021;DHT22;25188;51.958;5.842;2022-09-13T05:31:07;19.30;91.70
39021;DHT22;25188;51.958;5.842;2022-09-13T05:33:36;19.30;91.80
39021;DHT22;25188;51.958;5.842;2022-09-13T05:36:03;19.30;91.70
39021;DHT22;25188;51.958;5.842;2022-09-13T05:38:30;19.30;91.60
39021;DHT22;25188;51.958;5.842;2022-09-13T05:41:03;19.30;91.60
39021;DHT22;25188;51.958;5.842;2022-09-13T05:43:32;19.30;91.60
39021;DHT22;25188;51.958;5.842;2022-09-13T05:46:07;19.40;91.60
39021;DHT22;25188;51.958;5.842;2022-09-13T05:48:33;19.30;92.00
39021;DHT22;25188;51.958;5.842;2022-09-13T05:51:04;19.30;91.70
39021;DHT22;25188;51.958;5.842;2022-09-13T05:53:31;19.30;91.80
39021;DHT22;25188;51.958;5.842;2022-09-13T05:55:57;19.30;91.90
39021;DHT22;25188;51.958;5.842;2022-09-13T05:58:22;19.30;92.00
39021;DHT22;25188;51.958;5.842;2022-09-13T06:00:57;19.30;92.00
39021;DHT22;25188;51.958;5.842;2022-09-13T06:03:23;19.30;92.10
39021;DHT22;25188;51.958;5.842;2022-09-13T06:05:53;19.40;92.10
39021;DHT22;25188;51.958;5.842;2022-09-13T06:08:18;19.40;92.10
39021;DHT22;25188;51.958;5.842;2022-09-13T06:10:59;19.40;92.10
39021;DHT22;25188;51.958;5.842;2022-09-13T06:13:25;19.50;92.20
39021;DHT22;25188;51.958;5.842;2022-09-13T06:15:52;19.50;92.20
39021;DHT22;25188;51.958;5.842;2022-09-13T06:18:19;19.50;92.20
39021;DHT22;25188;51.958;5.842;2022-09-13T06:20:45;19.60;92.20
39021;DHT22;25188;51.958;5.842;2022-09-13T06:23:11;19.60;92.20
39021;DHT22;25188;51.958;5.842;2022-09-13T06:25:37;19.70;92.20
39021;DHT22;25188;51.958;5.842;2022-09-13T06:28:04;19.70;92.20
39021;DHT22;25188;51.958;5.842;2022-09-13T06:30:29;19.70;92.30
39021;DHT22;25188;51.958;5.842;2022-09-13T06:32:56;19.80;92.30
39021;DHT22;25188;51.958;5.842;2022-09-13T06:35:21;19.80;92.30
39021;DHT22;25188;51.958;5.842;2022-09-13T06:37:48;19.80;92.20
39021;DHT22;25188;51.958;5.842;2022-09-13T06:40:14;19.80;92.20
39021;DHT22;25188;51.958;5.842;2022-09-13T06:42:41;19.90;92.20
39021;DHT22;25188;51.958;5.842;2022-09-13T06:45:07;19.90;92.10
39021;DHT22;25188;51.958;5.842;2022-09-13T06:47:33;19.90;92.10
39021;DHT22;25188;51.958;5.842;2022-09-13T06:49:58;19.90;92.10
39021;DHT22;25188;51.958;5.842;2022-09-13T06:52:25;20.00;92.10
39021;DHT22;25188;51.958;5.842;2022-09-13T06:54:50;20.00;92.10
39021;DHT22;25188;51.958;5.842;2022-09-13T06:57:16;20.00;92.10
39021;DHT22;25188;51.958;5.842;2022-09-13T06:59:42;20.10;92.10
39021;DHT22;25188;51.958;5.842;2022-09-13T07:02:09;20.10;92.00
39021;DHT22;25188;51.958;5.842;2022-09-13T07:04:35;20.10;92.00
39021;DHT22;25188;51.958;5.842;2022-09-13T07:07:00;20.20;92.00
39021;DHT22;25188;51.958;5.842;2022-09-13T07:09:26;20.20;92.00
39021;DHT22;25188;51.958;5.842;2022-09-13T07:11:54;20.30;92.00
39021;DHT22;25188;51.958;5.842;2022-09-13T07:14:23;20.30;91.90
39021;DHT22;25188;51.958;5.842;2022-09-13T07:16:49;20.40;92.10
39021;DHT22;25188;51.958;5.842;2022-09-13T07:19:21;20.40;91.70
39021;DHT22;25188;51.958;5.842;2022-09-13T07:21:48;20.50;91.70
39021;DHT22;25188;51.958;5.842;2022-09-13T07:24:15;20.60;91.60
39021;DHT22;25188;51.958;5.842;2022-09-13T07:26:41;20.60;91.60
39021;DHT22;25188;51.958;5.842;2022-09-13T07:29:09;20.60;91.40
39021;DHT22;25188;51.958;5.842;2022-09-13T07:31:40;20.70;91.40
39021;DHT22;25188;51.958;5.842;2022-09-13T07:34:12;20.70;91.30
39021;DHT22;25188;51.958;5.842;2022-09-13T07:36:38;20.70;91.30
39021;DHT22;25188;51.958;5.842;2022-09-13T07:39:04;20.70;91.20
39021;DHT22;25188;51.958;5.842;2022-09-13T07:41:31;20.80;91.20
39021;DHT22;25188;51.958;5.842;2022-09-13T07:43:57;20.80;91.20
39021;DHT22;25188;51.958;5.842;2022-09-13T07:46:26;20.80;91.20
39021;DHT22;25188;51.958;5.842;2022-09-13T07:48:54;20.90;91.10
39021;DHT22;25188;51.958;5.842;2022-09-13T07:51:25;20.90;91.10
39021;DHT22;25188;51.958;5.842;2022-09-13T07:53:54;20.90;91.00
39021;DHT22;25188;51.958;5.842;2022-09-13T07:56:23;21.00;91.00
39021;DHT22;25188;51.958;5.842;2022-09-13T07:58:50;21.00;91.00
39021;DHT22;25188;51.958;5.842;2022-09-13T08:01:26;21.10;91.00
39021;DHT22;25188;51.958;5.842;2022-09-13T08:03:57;21.20;91.00
39021;DHT22;25188;51.958;5.842;2022-09-13T08:06:24;21.20;91.00
39021;DHT22;25188;51.958;5.842;2022-09-13T08:08:50;21.30;91.00
39021;DHT22;25188;51.958;5.842;2022-09-13T08:11:19;21.40;90.90
39021;DHT22;25188;51.958;5.842;2022-09-13T08:13:49;21.50;91.30
39021;DHT22;25188;51.958;5.842;2022-09-13T08:16:17;21.60;91.00
39021;DHT22;25188;51.958;5.842;2022-09-13T08:18:47;21.70;91.00
39021;DHT22;25188;51.958;5.842;2022-09-13T08:21:13;21.70;90.90
39021;DHT22;25188;51.958;5.842;2022-09-13T08:23:40;21.80;91.20
39021;DHT22;25188;51.958;5.842;2022-09-13T08:26:06;21.90;90.90
39021;DHT22;25188;51.958;5.842;2022-09-13T08:28:42;22.00;91.00
39021;DHT22;25188;51.958;5.842;2022-09-13T08:31:14;22.10;90.70
39021;DHT22;25188;51.958;5.842;2022-09-13T08:33:43;22.20;90.60
39021;DHT22;25188;51.958;5.842;2022-09-13T08:36:10;22.20;90.50
39021;DHT22;25188;51.958;5.842;2022-09-13T08:38:36;22.30;90.40
39021;DHT22;25188;51.958;5.842;2022-09-13T08:46:31;22.40;90.20
39021;DHT22;25188;51.958;5.842;2022-09-13T08:49:01;22.40;90.10
39021;DHT22;25188;51.958;5.842;2022-09-13T08:54:01;22.60;90.00
39021;DHT22;25188;51.958;5.842;2022-09-13T08:56:37;22.60;89.80
39021;DHT22;25188;51.958;5.842;2022-09-13T09:07:39;22.80;89.00
39021;DHT22;25188;51.958;5.842;2022-09-13T09:10:14;23.00;88.80
39021;DHT22;25188;51.958;5.842;2022-09-13T09:12:45;23.00;88.50
39021;DHT22;25188;51.958;5.842;2022-09-13T09:15:23;23.00;88.30
39021;DHT22;25188;51.958;5.842;2022-09-13T09:18:11;23.10;88.00
39021;DHT22;25188;51.958;5.842;2022-09-13T09:20:46;23.20;87.70
39021;DHT22;25188;51.958;5.842;2022-09-13T09:23:24;23.20;87.40
39021;DHT22;25188;51.958;5.842;2022-09-13T09:26:14;23.20;87.00
39021;DHT22;25188;51.958;5.842;2022-09-13T09:28:42;23.30;86.70
39021;DHT22;25188;51.958;5.842;2022-09-13T09:34:26;23.30;86.20
39021;DHT22;25188;51.958;5.842;2022-09-13T09:37:21;23.40;85.90
39021;DHT22;25188;51.958;5.842;2022-09-13T09:39:51;23.40;86.30
39021;DHT22;25188;51.958;5.842;2022-09-13T09:42:26;23.40;85.50
39021;DHT22;25188;51.958;5.842;2022-09-13T09:45:02;23.50;85.30
39021;DHT22;25188;51.958;5.842;2022-09-13T09:47:38;23.40;85.10
39021;DHT22;25188;51.958;5.842;2022-09-13T09:50:10;23.50;85.00
39021;DHT22;25188;51.958;5.842;2022-09-13T09:55:28;23.40;84.50
39021;DHT22;25188;51.958;5.842;2022-09-13T09:57:59;23.50;84.50
39021;DHT22;25188;51.958;5.842;2022-09-13T10:00:30;23.50;84.40
39021;DHT22;25188;51.958;5.842;2022-09-13T10:02:59;23.60;84.20
39021;DHT22;25188;51.958;5.842;2022-09-13T10:05:26;23.60;83.90
39021;DHT22;25188;51.958;5.842;2022-09-13T10:07:54;23.70;83.70
39021;DHT22;25188;51.958;5.842;2022-09-13T10:10:24;23.70;83.60
39021;DHT22;25188;51.958;5.842;2022-09-13T10:12:53;23.70;83.40
39021;DHT22;25188;51.958;5.842;2022-09-13T10:15:24;23.80;83.10
39021;DHT22;25188;51.958;5.842;2022-09-13T10:18:02;23.80;82.90
39021;DHT22;25188;51.958;5.842;2022-09-13T10:20:33;23.90;82.60
39021;DHT22;25188;51.958;5.842;2022-09-13T10:23:32;24.00;82.30
39021;DHT22;25188;51.958;5.842;2022-09-13T10:28:34;24.10;81.40
39021;DHT22;25188;51.958;5.842;2022-09-13T10:31:07;24.20;81.10
39021;DHT22;25188;51.958;5.842;2022-09-13T10:33:55;24.20;80.70
39021;DHT22;25188;51.958;5.842;2022-09-13T10:36:27;24.20;80.50
39021;DHT22;25188;51.958;5.842;2022-09-13T10:39:13;24.20;80.30
39021;DHT22;25188;51.958;5.842;2022-09-13T10:41:57;24.20;80.00
39021;DHT22;25188;51.958;5.842;2022-09-13T10:44:25;24.20;79.90
39021;DHT22;25188;51.958;5.842;2022-09-13T10:46:52;24.30;79.80
39021;DHT22;25188;51.958;5.842;2022-09-13T10:49:46;24.40;79.80
39021;DHT22;25188;51.958;5.842;2022-09-13T10:52:40;24.50;79.40
39021;DHT22;25188;51.958;5.842;2022-09-13T10:57:46;24.80;78.80
39021;DHT22;25188;51.958;5.842;2022-09-13T11:00:14;25.00;78.60
39021;DHT22;25188;51.958;5.842;2022-09-13T11:03:12;25.20;78.00
39021;DHT22;25188;51.958;5.842;2022-09-13T11:20:26;26.70;73.50
39021;DHT22;25188;51.958;5.842;2022-09-13T11:34:18;27.00;70.30
39021;DHT22;25188;51.958;5.842;2022-09-13T11:50:48;27.40;68.30
39021;DHT22;25188;51.958;5.842;2022-09-13T11:55:52;27.60;67.30
39021;DHT22;25188;51.958;5.842;2022-09-13T12:01:30;27.70;65.90
39021;DHT22;25188;51.958;5.842;2022-09-13T12:04:05;27.70;65.70
39021;DHT22;25188;51.958;5.842;2022-09-13T12:09:22;28.00;65.00
39021;DHT22;25188;51.958;5.842;2022-09-13T12:12:13;28.30;64.30
39021;DHT22;25188;51.958;5.842;2022-09-13T12:14:51;28.50;63.80
39021;DHT22;25188;51.958;5.842;2022-09-13T12:17:29;28.80;63.40
39021;DHT22;25188;51.958;5.842;2022-09-13T12:19:59;29.00;62.80
39021;DHT22;25188;51.958;5.842;2022-09-13T12:22:29;29.10;62.50
39021;DHT22;25188;51.958;5.842;2022-09-13T12:24:58;29.10;61.90
39021;DHT22;25188;51.958;5.842;2022-09-13T12:30:35;28.90;61.10
39021;DHT22;25188;51.958;5.842;2022-09-13T12:33:05;28.80;61.00
39021;DHT22;25188;51.958;5.842;2022-09-13T12:41:45;28.50;60.80
39021;DHT22;25188;51.958;5.842;2022-09-13T12:47:11;28.70;60.60
39021;DHT22;25188;51.958;5.842;2022-09-13T12:52:27;28.90;59.90
39021;DHT22;25188;51.958;5.842;2022-09-13T13:01:09;29.20;59.10
39021;DHT22;25188;51.958;5.842;2022-09-13T13:03:52;29.40;58.50
39021;DHT22;25188;51.958;5.842;2022-09-13T13:06:32;29.30;58.40
39021;DHT22;25188;51.958;5.842;2022-09-13T13:09:05;29.30;58.20
39021;DHT22;25188;51.958;5.842;2022-09-13T13:11:43;29.20;58.10
39021;DHT22;25188;51.958;5.842;2022-09-13T13:19:48;29.50;58.40
39021;DHT22;25188;51.958;5.842;2022-09-13T13:27:55;29.60;57.40
39021;DHT22;25188;51.958;5.842;2022-09-13T13:30:41;29.60;57.50
39021;DHT22;25188;51.958;5.842;2022-09-13T13:33:18;29.60;56.90
39021;DHT22;25188;51.958;5.842;2022-09-13T13:35:44;29.60;57.00
39021;DHT22;25188;51.958;5.842;2022-09-13T13:38:33;29.70;56.90
39021;DHT22;25188;51.958;5.842;2022-09-13T13:44:50;30.30;56.20
39021;DHT22;25188;51.958;5.842;2022-09-13T13:46:48;30.60;56.30
39021;DHT22;25188;51.958;5.842;2022-09-13T13:57:40;30.60;54.40
39021;DHT22;25188;51.958;5.842;2022-09-13T14:05:45;30.30;54.80
39021;DHT22;25188;51.958;5.842;2022-09-13T14:21:41;30.50;53.30
39021;DHT22;25188;51.958;5.842;2022-09-13T14:24:22;30.60;53.80
39021;DHT22;25188;51.958;5.842;2022-09-13T14:26:56;30.80;52.60
39021;DHT22;25188;51.958;5.842;2022-09-13T14:29:23;31.00;52.60
39021;DHT22;25188;51.958;5.842;2022-09-13T14:32:00;31.10;52.30
39021;DHT22;25188;51.958;5.842;2022-09-13T14:34:29;31.10;51.90
39021;DHT22;25188;51.958;5.842;2022-09-13T14:36:58;31.10;51.70
39021;DHT22;25188;51.958;5.842;2022-09-13T14:39:25;31.00;51.60
39021;DHT22;25188;51.958;5.842;2022-09-13T14:41:59;30.90;51.60
39021;DHT22;25188;51.958;5.842;2022-09-13T14:44:26;30.80;51.50
39021;DHT22;25188;51.958;5.842;2022-09-13T14:46:57;30.50;51.60
39021;DHT22;25188;51.958;5.842;2022-09-13T14:49:29;30.40;51.80
39021;DHT22;25188;51.958;5.842;2022-09-13T14:52:01;30.20;51.90
39021;DHT22;25188;51.958;5.842;2022-09-13T14:54:46;30.10;52.10
39021;DHT22;25188;51.958;5.842;2022-09-13T14:57:28;30.00;52.20
39021;DHT22;25188;51.958;5.842;2022-09-13T14:59:58;29.90;52.30
39021;DHT22;25188;51.958;5.842;2022-09-13T15:02:29;29.90;52.30
39021;DHT22;25188;51.958;5.842;2022-09-13T15:04:58;29.90;52.20
39021;DHT22;25188;51.958;5.842;2022-09-13T15:10:06;29.90;52.00
39021;DHT22;25188;51.958;5.842;2022-09-13T15:12:34;29.90;51.90
39021;DHT22;25188;51.958;5.842;2022-09-13T15:18:03;29.80;52.00
39021;DHT22;25188;51.958;5.842;2022-09-13T15:23:38;29.80;52.40
39021;DHT22;25188;51.958;5.842;2022-09-13T15:26:20;29.80;52.30
39021;DHT22;25188;51.958;5.842;2022-09-13T15:28:52;29.80;52.10
39021;DHT22;25188;51.958;5.842;2022-09-13T15:31:27;29.70;52.00
39021;DHT22;25188;51.958;5.842;2022-09-13T15:36:44;29.50;52.10
39021;DHT22;25188;51.958;5.842;2022-09-13T15:39:15;29.50;52.30
39021;DHT22;25188;51.958;5.842;2022-09-13T15:41:57;29.60;52.30
39021;DHT22;25188;51.958;5.842;2022-09-13T15:44:28;29.80;52.10
39021;DHT22;25188;51.958;5.842;2022-09-13T15:46:58;30.00;52.10
39021;DHT22;25188;51.958;5.842;2022-09-13T15:49:26;30.00;51.80
39021;DHT22;25188;51.958;5.842;2022-09-13T15:51:57;30.00;51.70
39021;DHT22;25188;51.958;5.842;2022-09-13T15:54:27;30.10;51.50
39021;DHT22;25188;51.958;5.842;2022-09-13T15:56:55;30.10;51.20
39021;DHT22;25188;51.958;5.842;2022-09-13T15:59:21;30.10;51.00
39021;DHT22;25188;51.958;5.842;2022-09-13T16:01:48;30.00;50.80
39021;DHT22;25188;51.958;5.842;2022-09-13T16:04:14;30.00;50.70
39021;DHT22;25188;51.958;5.842;2022-09-13T16:06:40;29.80;50.50
39021;DHT22;25188;51.958;5.842;2022-09-13T16:09:21;29.60;50.30
39021;DHT22;25188;51.958;5.842;2022-09-13T16:11:48;29.50;50.50
39021;DHT22;25188;51.958;5.842;2022-09-13T16:14:14;29.30;50.60
39021;DHT22;25188;51.958;5.842;2022-09-13T16:16:42;29.20;50.80
39021;DHT22;25188;51.958;5.842;2022-09-13T16:19:20;29.00;50.90
39021;DHT22;25188;51.958;5.842;2022-09-13T16:21:46;28.80;50.80
39021;DHT22;25188;51.958;5.842;2022-09-13T16:24:12;28.60;51.00
39021;DHT22;25188;51.958;5.842;2022-09-13T16:26:38;28.40;51.60
39021;DHT22;25188;51.958;5.842;2022-09-13T16:29:04;28.30;51.10
39021;DHT22;25188;51.958;5.842;2022-09-13T16:31:30;28.20;51.30
39021;DHT22;25188;51.958;5.842;2022-09-13T16:33:56;28.10;51.50
39021;DHT22;25188;51.958;5.842;2022-09-13T16:36:22;27.90;51.80
39021;DHT22;25188;51.958;5.842;2022-09-13T16:38:48;27.80;52.00
39021;DHT22;25188;51.958;5.842;2022-09-13T16:41:13;27.60;52.20
39021;DHT22;25188;51.958;5.842;2022-09-13T16:43:39;27.50;52.40
39021;DHT22;25188;51.958;5.842;2022-09-13T16:46:06;27.40;52.60
39021;DHT22;25188;51.958;5.842;2022-09-13T16:48:32;27.30;52.90
39021;DHT22;25188;51.958;5.842;2022-09-13T16:51:03;27.20;53.20
39021;DHT22;25188;51.958;5.842;2022-09-13T16:53:33;27.10;53.20
39021;DHT22;25188;51.958;5.842;2022-09-13T16:58:43;26.80;53.60
39021;DHT22;25188;51.958;5.842;2022-09-13T17:01:12;26.70;53.70
39021;DHT22;25188;51.958;5.842;2022-09-13T17:03:38;26.50;53.80
39021;DHT22;25188;51.958;5.842;2022-09-13T17:06:09;26.40;53.90
39021;DHT22;25188;51.958;5.842;2022-09-13T17:08:36;26.30;54.10
39021;DHT22;25188;51.958;5.842;2022-09-13T17:11:08;26.20;54.30
39021;DHT22;25188;51.958;5.842;2022-09-13T17:13:35;26.10;54.60
39021;DHT22;25188;51.958;5.842;2022-09-13T17:16:02;26.00;54.70
39021;DHT22;25188;51.958;5.842;2022-09-13T17:18:27;25.90;54.90
39021;DHT22;25188;51.958;5.842;2022-09-13T17:20:53;25.80;55.10
39021;DHT22;25188;51.958;5.842;2022-09-13T17:23:19;25.70;55.20
39021;DHT22;25188;51.958;5.842;2022-09-13T17:25:46;25.60;55.30
39021;DHT22;25188;51.958;5.842;2022-09-13T17:28:14;25.40;55.40
39021;DHT22;25188;51.958;5.842;2022-09-13T17:30:40;25.40;55.50
39021;DHT22;25188;51.958;5.842;2022-09-13T17:33:06;25.30;55.60
39021;DHT22;25188;51.958;5.842;2022-09-13T17:35:32;25.20;55.80
39021;DHT22;25188;51.958;5.842;2022-09-13T17:37:59;25.00;55.90
39021;DHT22;25188;51.958;5.842;2022-09-13T17:40:26;24.90;56.20
39021;DHT22;25188;51.958;5.842;2022-09-13T17:42:53;24.90;56.40
39021;DHT22;25188;51.958;5.842;2022-09-13T17:45:18;24.80;56.50
39021;DHT22;25188;51.958;5.842;2022-09-13T17:47:45;24.70;56.50
39021;DHT22;25188;51.958;5.842;2022-09-13T17:50:11;24.50;56.60
39021;DHT22;25188;51.958;5.842;2022-09-13T17:52:37;24.50;56.90
39021;DHT22;25188;51.958;5.842;2022-09-13T17:55:03;24.40;56.90
39021;DHT22;25188;51.958;5.842;2022-09-13T17:57:29;24.30;57.00
39021;DHT22;25188;51.958;5.842;2022-09-13T17:59:54;24.20;57.00
39021;DHT22;25188;51.958;5.842;2022-09-13T18:02:20;24.10;57.00
39021;DHT22;25188;51.958;5.842;2022-09-13T18:04:49;24.00;57.10
39021;DHT22;25188;51.958;5.842;2022-09-13T18:07:16;24.00;57.30
39021;DHT22;25188;51.958;5.842;2022-09-13T18:09:42;23.90;57.40
39021;DHT22;25188;51.958;5.842;2022-09-13T18:12:08;23.80;57.50
39021;DHT22;25188;51.958;5.842;2022-09-13T18:14:34;23.70;57.60
39021;DHT22;25188;51.958;5.842;2022-09-13T18:17:00;23.60;57.70
39021;DHT22;25188;51.958;5.842;2022-09-13T18:19:26;23.60;57.80
39021;DHT22;25188;51.958;5.842;2022-09-13T18:21:52;23.50;58.00
39021;DHT22;25188;51.958;5.842;2022-09-13T18:24:18;23.50;58.10
39021;DHT22;25188;51.958;5.842;2022-09-13T18:26:44;23.40;58.20
39021;DHT22;25188;51.958;5.842;2022-09-13T18:29:12;23.30;58.30
39021;DHT22;25188;51.958;5.842;2022-09-13T18:31:39;23.30;58.40
39021;DHT22;25188;51.958;5.842;2022-09-13T18:34:13;23.20;58.50
39021;DHT22;25188;51.958;5.842;2022-09-13T18:36:39;23.10;58.70
39021;DHT22;25188;51.958;5.842;2022-09-13T18:39:06;23.10;58.80
39021;DHT22;25188;51.958;5.842;2022-09-13T18:41:37;23.10;58.90
39021;DHT22;25188;51.958;5.842;2022-09-13T18:44:06;23.00;59.00
39021;DHT22;25188;51.958;5.842;2022-09-13T18:46:33;23.00;59.20
39021;DHT22;25188;51.958;5.842;2022-09-13T18:49:00;22.90;59.30
39021;DHT22;25188;51.958;5.842;2022-09-13T18:51:38;22.80;59.40
39021;DHT22;25188;51.958;5.842;2022-09-13T18:54:05;22.80;59.50
39021;DHT22;25188;51.958;5.842;2022-09-13T18:56:32;22.80;59.70
39021;DHT22;25188;51.958;5.842;2022-09-13T18:59:01;22.70;59.80
39021;DHT22;25188;51.958;5.842;2022-09-13T19:01:29;22.70;59.90
39021;DHT22;25188;51.958;5.842;2022-09-13T19:04:09;22.70;60.10
39021;DHT22;25188;51.958;5.842;2022-09-13T19:06:47;22.60;60.20
39021;DHT22;25188;51.958;5.842;2022-09-13T19:09:13;22.50;60.30
39021;DHT22;25188;51.958;5.842;2022-09-13T19:11:41;22.50;60.40
39021;DHT22;25188;51.958;5.842;2022-09-13T19:14:08;22.40;60.40